createdAt,value
2022-08-07T00:00:52.481Z,102139.44
2022-08-07T00:03:20.389Z,102145.25
2022-08-07T00:05:54.119Z,102137.56
2022-08-07T00:08:23.472Z,102136.66
2022-08-07T00:10:57.515Z,102137.88
2022-08-07T00:13:26.829Z,102137.56
2022-08-07T00:15:55.632Z,102141.84
2022-08-07T00:18:25.608Z,102136.84
2022-08-07T00:20:54.935Z,102142.59
2022-08-07T00:23:25.250Z,102142.22
2022-08-07T00:26:00.409Z,102138.88
2022-08-07T00:28:33.405Z,102136.75
2022-08-07T00:31:05.949Z,102142.56
2022-08-07T00:33:35.027Z,102138.41
2022-08-07T00:36:03.663Z,102138.38
2022-08-07T00:38:33.316Z,102141.34
2022-08-07T00:41:02.898Z,102142.59
2022-08-07T00:43:59.702Z,102142.47
2022-08-07T00:46:18.833Z,102131.09
2022-08-07T00:48:49.743Z,102129.53
2022-08-07T00:51:18.203Z,102132.16
2022-08-07T00:53:50.697Z,102127.53
2022-08-07T00:56:30.030Z,102126.88
2022-08-07T00:58:58.925Z,102127.31
2022-08-07T01:01:27.130Z,102133.47
2022-08-07T01:04:00.200Z,102130.66
2022-08-07T01:06:29.274Z,102135.00
2022-08-07T01:09:00.655Z,102132.00
2022-08-07T01:12:23.671Z,102137.63
2022-08-07T01:14:21.357Z,102129.75
2022-08-07T01:16:57.768Z,102135.03
2022-08-07T01:19:27.686Z,102135.31
2022-08-07T01:22:03.069Z,102135.44
2022-08-07T01:24:32.862Z,102135.03
2022-08-07T01:27:01.355Z,102129.22
2022-08-07T01:29:33.820Z,102124.66
2022-08-07T01:32:05.280Z,102121.81
2022-08-07T01:34:34.302Z,102114.84
2022-08-07T01:37:03.923Z,102117.84
2022-08-07T01:39:40.553Z,102127.38
2022-08-07T01:42:38.653Z,102124.06
2022-08-07T01:45:04.163Z,102118.97
2022-08-07T01:48:19.394Z,102121.91
2022-08-07T01:50:22.800Z,102132.91
2022-08-07T01:53:00.151Z,102129.63
2022-08-07T01:55:30.642Z,102135.59
2022-08-07T01:58:06.647Z,102125.00
2022-08-07T02:01:09.444Z,102143.50
2022-08-07T02:03:50.296Z,102136.34
2022-08-07T02:06:31.824Z,102140.22
2022-08-07T02:09:05.266Z,102139.88
2022-08-07T02:12:02.820Z,102133.25
2022-08-07T02:14:36.620Z,102136.56
2022-08-07T02:17:10.905Z,102130.53
2022-08-07T02:20:05.035Z,102130.53
2022-08-07T02:22:31.171Z,102129.72
2022-08-07T02:25:01.718Z,102123.50
2022-08-07T02:27:36.980Z,102130.56
2022-08-07T02:30:10.711Z,102125.63
2022-08-07T02:33:03.648Z,102122.13
2022-08-07T02:36:29.913Z,102127.84
2022-08-07T02:38:28.214Z,102139.91
2022-08-07T02:41:03.884Z,102134.22
2022-08-07T02:43:33.784Z,102134.06
2022-08-07T02:46:05.569Z,102132.19
2022-08-07T02:48:34.477Z,102130.75
2022-08-07T02:51:28.950Z,102135.50
2022-08-07T02:53:58.162Z,102132.94
2022-08-07T02:56:33.004Z,102131.22
2022-08-07T02:59:05.104Z,102130.13
2022-08-07T03:01:35.308Z,102128.84
2022-08-07T03:04:06.980Z,102130.91
2022-08-07T03:06:37.154Z,102124.34
2022-08-07T03:09:11.192Z,102128.06
2022-08-07T03:11:52.589Z,102127.06
2022-08-07T03:14:26.052Z,102128.91
2022-08-07T03:16:56.698Z,102125.91
2022-08-07T03:19:28.947Z,102126.84
2022-08-07T03:22:06.843Z,102130.72
2022-08-07T03:24:36.638Z,102131.22
2022-08-07T03:27:09.217Z,102130.09
2022-08-07T03:29:46.286Z,102121.50
2022-08-07T03:32:23.609Z,102128.47
2022-08-07T03:35:16.738Z,102131.06
2022-08-07T03:37:53.108Z,102134.59
2022-08-07T03:40:23.774Z,102133.31
2022-08-07T03:43:01.107Z,102135.19
2022-08-07T03:45:31.568Z,102137.53
2022-08-07T03:47:59.911Z,102133.59
2022-08-07T03:50:29.142Z,102137.25
2022-08-07T03:52:58.532Z,102117.34
2022-08-07T03:55:52.796Z,102138.22
2022-08-07T03:59:05.349Z,102140.72
2022-08-07T04:01:07.570Z,102141.38
2022-08-07T04:03:53.379Z,102139.59
2022-08-07T04:06:37.594Z,102137.03
2022-08-07T04:09:06.455Z,102136.09
2022-08-07T04:12:26.288Z,102139.06
2022-08-07T04:14:39.055Z,102143.63
2022-08-07T04:17:20.098Z,102137.88
2022-08-07T04:19:52.920Z,102144.31
2022-08-07T04:22:29.207Z,102134.97
2022-08-07T04:24:58.526Z,102139.59
2022-08-07T04:27:26.903Z,102142.34
2022-08-07T04:30:01.418Z,102143.19
2022-08-07T04:32:34.260Z,102144.22
2022-08-07T04:35:03.949Z,102141.72
2022-08-07T04:38:00.809Z,102151.91
2022-08-07T04:40:29.785Z,102144.63
2022-08-07T04:43:02.198Z,102150.56
2022-08-07T04:46:00.881Z,102150.56
2022-08-07T04:48:40.768Z,102155.47
2022-08-07T04:51:27.072Z,102158.06
2022-08-07T04:54:06.734Z,102154.09
2022-08-07T04:58:09.708Z,102152.41
2022-08-07T05:00:09.792Z,102147.97
2022-08-07T05:02:31.784Z,102149.47
2022-08-07T05:05:11.901Z,102155.09
2022-08-07T05:07:59.425Z,102149.75
2022-08-07T05:10:31.996Z,102155.00
2022-08-07T05:13:10.104Z,102151.59
2022-08-07T05:15:58.486Z,102151.91
2022-08-07T05:18:30.863Z,102157.22
2022-08-07T05:21:03.822Z,102132.22
2022-08-07T05:23:37.322Z,102152.84
2022-08-07T05:26:15.708Z,102154.44
2022-08-07T05:28:48.653Z,102156.69
2022-08-07T05:31:21.379Z,102164.16
2022-08-07T05:34:04.500Z,102170.63
2022-08-07T05:36:35.597Z,102167.34
2022-08-07T05:40:05.659Z,102166.31
2022-08-07T05:42:01.751Z,102169.13
2022-08-07T05:44:36.510Z,102162.22
2022-08-07T05:47:18.207Z,102168.94
2022-08-07T05:49:49.854Z,102172.75
2022-08-07T05:52:20.316Z,102167.78
2022-08-07T05:54:55.914Z,102172.66
2022-08-07T05:57:30.136Z,102178.16
2022-08-07T06:00:03.370Z,102169.78
2022-08-07T06:02:35.914Z,102163.31
2022-08-07T06:05:10.767Z,102166.28
2022-08-07T06:08:14.134Z,102162.41
2022-08-07T06:10:33.145Z,102174.56
2022-08-07T06:13:02.206Z,102166.84
2022-08-07T06:15:42.091Z,102169.47
2022-08-07T06:18:13.847Z,102166.28
2022-08-07T06:20:50.955Z,102161.19
2022-08-07T06:24:37.229Z,102167.09
2022-08-07T06:26:21.652Z,102165.78
2022-08-07T06:28:57.129Z,102166.59
2022-08-07T06:31:47.043Z,102165.84
2022-08-07T06:34:15.726Z,102161.53
2022-08-07T06:36:52.210Z,102163.63
2022-08-07T06:40:16.738Z,102168.13
2022-08-07T06:42:12.778Z,102170.59
2022-08-07T06:44:41.901Z,102172.56
2022-08-07T06:47:15.397Z,102175.81
2022-08-07T06:49:51.242Z,102175.41
2022-08-07T06:52:31.442Z,102179.56
2022-08-07T06:55:33.047Z,102178.47
2022-08-07T06:58:00.402Z,102169.38
2022-08-07T07:00:32.020Z,102171.34
2022-08-07T07:03:08.765Z,102172.22
2022-08-07T07:06:03.765Z,102165.31
2022-08-07T07:08:32.975Z,102167.84
2022-08-07T07:11:13.157Z,102177.78
2022-08-07T07:14:01.276Z,102176.88
2022-08-07T07:16:44.243Z,102170.09
2022-08-07T07:19:56.198Z,102171.13
2022-08-07T07:22:36.236Z,102169.31
2022-08-07T07:26:31.041Z,102172.19
2022-08-07T07:27:58.532Z,102170.41
2022-08-07T07:30:40.872Z,102166.41
2022-08-07T07:33:12.264Z,102162.91
2022-08-07T07:36:04.722Z,102169.91
2022-08-07T07:38:34.932Z,102157.31
2022-08-07T07:41:09.204Z,102156.88
2022-08-07T07:43:47.882Z,102157.75
2022-08-07T07:46:38.504Z,102157.47
2022-08-07T07:50:34.582Z,102157.13
2022-08-07T07:52:10.788Z,102145.06
2022-08-07T07:54:40.102Z,102146.69
2022-08-07T07:57:43.893Z,102142.53
2022-08-07T08:00:15.015Z,102138.13
2022-08-07T08:03:05.303Z,102141.69
2022-08-07T08:05:50.603Z,102134.75
2022-08-07T08:08:35.112Z,102135.00
2022-08-07T08:11:08.478Z,102129.38
2022-08-07T08:13:54.592Z,102141.47
2022-08-07T08:18:36.432Z,102132.03
2022-08-07T08:20:15.948Z,102127.25
2022-08-07T08:22:32.569Z,102125.38
2022-08-07T08:25:24.943Z,102118.41
2022-08-07T08:28:16.939Z,102116.09
2022-08-07T08:30:58.559Z,102120.94
2022-08-07T08:33:33.097Z,102124.97
2022-08-07T08:36:02.769Z,102113.84
2022-08-07T08:38:40.509Z,102123.06
2022-08-07T08:41:15.696Z,102118.44
2022-08-07T08:43:56.269Z,102129.91
2022-08-07T08:46:38.390Z,102117.47
2022-08-07T08:49:14.171Z,102117.22
2022-08-07T08:52:14.382Z,102116.13
2022-08-07T08:54:48.158Z,102111.00
2022-08-07T08:57:23.464Z,102112.31
2022-08-07T09:00:00.415Z,102107.28
2022-08-07T09:02:38.042Z,102105.97
2022-08-07T09:05:32.326Z,102108.97
2022-08-07T09:08:24.423Z,102117.41
2022-08-07T09:11:08.305Z,102115.94
2022-08-07T09:13:42.788Z,102109.72
2022-08-07T09:16:23.872Z,102110.13
2022-08-07T09:19:53.180Z,102104.84
2022-08-07T09:24:27.238Z,102105.78
2022-08-07T09:25:17.614Z,102108.53
2022-08-07T09:28:00.979Z,102101.50
2022-08-07T09:30:44.163Z,102099.19
2022-08-07T09:33:53.187Z,102092.13
2022-08-07T09:36:27.034Z,102092.38
2022-08-07T09:39:53.169Z,102095.13
2022-08-07T09:42:16.942Z,102090.22
2022-08-07T09:47:52.478Z,102082.63
2022-08-07T09:48:04.107Z,102084.16
2022-08-07T09:50:51.366Z,102082.25
2022-08-07T09:53:24.371Z,102079.56
2022-08-07T09:56:15.104Z,102077.66
2022-08-07T09:59:07.604Z,102072.91
2022-08-07T10:01:59.206Z,102071.81
2022-08-07T10:04:47.569Z,102073.63
2022-08-07T10:07:52.558Z,102068.25
2022-08-07T10:11:07.826Z,102065.53
2022-08-07T10:14:00.715Z,102060.84
2022-08-07T10:19:38.459Z,102055.34
2022-08-07T10:22:33.615Z,102054.13
2022-08-07T10:25:22.774Z,102063.19
2022-08-07T10:28:13.114Z,102047.09
2022-08-07T10:30:54.458Z,102042.75
2022-08-07T10:34:05.769Z,102036.84
2022-08-07T10:36:39.800Z,102041.56
2022-08-07T10:39:41.507Z,102035.31
2022-08-07T10:42:31.227Z,102025.09
2022-08-07T10:45:16.696Z,102027.31
2022-08-07T10:48:03.373Z,102020.94
2022-08-07T10:50:36.449Z,102018.75
2022-08-07T10:53:11.018Z,102009.22
2022-08-07T10:55:54.834Z,102014.41
2022-08-07T10:58:40.360Z,102007.19
2022-08-07T11:01:35.335Z,102007.25
2022-08-07T11:04:37.491Z,102001.91
2022-08-07T11:07:56.869Z,102002.00
2022-08-07T11:10:15.311Z,101995.16
2022-08-07T11:12:49.718Z,102001.34
2022-08-07T11:15:38.141Z,102000.97
2022-08-07T11:18:19.529Z,101996.63
2022-08-07T11:20:57.528Z,101985.38
2022-08-07T11:23:38.352Z,101982.63
2022-08-07T11:26:13.135Z,101984.56
2022-08-07T11:28:55.356Z,101982.56
2022-08-07T11:31:33.253Z,101971.94
2022-08-07T11:34:17.089Z,101967.09
2022-08-07T11:37:00.857Z,101972.78
2022-08-07T11:39:59.928Z,101968.56
2022-08-07T11:42:42.019Z,101961.16
2022-08-07T11:45:20.579Z,101964.34
2022-08-07T11:48:18.309Z,101961.28
2022-08-07T11:51:10.701Z,101955.63
2022-08-07T11:54:10.588Z,101948.97
2022-08-07T11:56:56.233Z,101948.06
2022-08-07T12:00:11.440Z,101953.25
2022-08-07T12:02:43.865Z,101958.91
2022-08-07T12:05:41.409Z,101947.94
2022-08-07T12:08:25.638Z,101948.78
2022-08-07T12:11:19.999Z,101952.72
2022-08-07T12:13:56.514Z,101942.97
2022-08-07T12:16:30.634Z,101943.38
2022-08-07T12:19:06.306Z,101937.13
2022-08-07T12:22:35.684Z,101936.38
2022-08-07T12:25:07.671Z,101926.47
2022-08-07T12:28:09.890Z,101928.97
2022-08-07T12:30:34.239Z,101926.19
2022-08-07T12:33:18.556Z,101921.31
2022-08-07T12:35:48.275Z,101919.72
2022-08-07T12:38:29.366Z,101916.72
2022-08-07T12:41:11.062Z,101925.69
2022-08-07T12:44:02.861Z,101919.25
2022-08-07T12:46:46.095Z,101912.31
2022-08-07T12:49:44.210Z,101911.69
2022-08-07T12:52:28.828Z,101907.25
2022-08-07T12:55:09.735Z,101909.09
2022-08-07T12:58:01.367Z,101894.22
2022-08-07T13:00:49.491Z,101901.91
2022-08-07T13:03:56.065Z,101892.38
2022-08-07T13:07:00.228Z,101896.59
2022-08-07T13:10:21.891Z,101885.19
2022-08-07T13:12:45.014Z,101886.97
2022-08-07T13:15:31.737Z,101878.03
2022-08-07T13:18:25.848Z,101875.06
2022-08-07T13:21:03.618Z,101882.25
2022-08-07T13:24:02.012Z,101878.38
2022-08-07T13:26:36.582Z,101875.25
2022-08-07T13:29:13.675Z,101867.94
2022-08-07T13:31:57.631Z,101873.03
2022-08-07T13:34:36.562Z,101866.47
2022-08-07T13:37:10.776Z,101869.72
2022-08-07T13:40:42.160Z,101865.31
2022-08-07T13:42:59.202Z,101860.28
2022-08-07T13:46:11.069Z,101862.25
2022-08-07T13:48:33.758Z,101855.63
2022-08-07T13:51:28.436Z,101848.06
2022-08-07T13:53:59.732Z,101850.81
2022-08-07T13:56:35.533Z,101841.59
2022-08-07T13:59:12.673Z,101845.41
2022-08-07T14:01:50.996Z,101839.78
2022-08-07T14:04:29.799Z,101835.84
2022-08-07T14:07:09.745Z,101837.34
2022-08-07T14:10:02.249Z,101835.84
2022-08-07T14:12:41.518Z,101829.16
2022-08-07T14:15:23.767Z,101824.09
2022-08-07T14:18:23.706Z,101820.84
2022-08-07T14:20:54.592Z,101821.34
2022-08-07T14:23:31.720Z,101823.16
2022-08-07T14:26:28.063Z,101814.44
2022-08-07T14:29:04.400Z,101820.22
2022-08-07T14:31:42.256Z,101812.66
2022-08-07T14:40:17.892Z,101807.91
2022-08-07T14:43:00.685Z,101807.06
2022-08-07T14:45:46.704Z,101800.56
2022-08-07T14:48:20.059Z,101800.09
2022-08-07T14:50:51.120Z,101803.34
2022-08-07T14:54:05.580Z,101799.63
2022-08-07T14:56:13.914Z,101795.97
2022-08-07T14:58:54.125Z,101798.16
2022-08-07T15:01:42.689Z,101792.53
2022-08-07T15:04:18.275Z,101795.88
2022-08-07T15:06:49.599Z,101787.38
2022-08-07T15:12:26.106Z,101792.25
2022-08-07T15:15:07.667Z,101784.47
2022-08-07T15:17:55.560Z,101790.16
2022-08-07T15:20:34.163Z,101784.94
2022-08-07T15:23:20.247Z,101783.25
2022-08-07T15:25:55.881Z,101781.78
2022-08-07T15:28:35.103Z,101772.88
2022-08-07T15:31:12.274Z,101773.47
2022-08-07T15:34:02.479Z,101775.41
2022-08-07T15:37:03.110Z,101766.44
2022-08-07T15:39:25.893Z,101773.72
2022-08-07T15:42:43.485Z,101767.72
2022-08-07T15:44:51.919Z,101771.31
2022-08-07T15:50:38.016Z,101760.72
2022-08-07T15:53:09.085Z,101757.97
2022-08-07T15:56:02.430Z,101754.78
2022-08-07T15:58:38.552Z,101758.38
2022-08-07T16:01:13.474Z,101756.34
2022-08-07T16:03:57.290Z,101750.97
2022-08-07T16:06:31.104Z,101754.47
2022-08-07T16:09:03.326Z,101751.91
2022-08-07T16:11:55.677Z,101745.19
2022-08-07T16:14:43.349Z,101745.69
2022-08-07T16:18:01.763Z,101748.00
2022-08-07T16:20:38.099Z,101745.75
2022-08-07T16:23:25.204Z,101746.06
2022-08-07T16:26:30.964Z,101751.25
2022-08-07T16:30:11.802Z,101751.16
2022-08-07T16:32:34.893Z,101748.38
2022-08-07T16:35:51.487Z,101738.38
2022-08-07T16:39:00.135Z,101754.56
2022-08-07T16:41:41.740Z,101749.66
2022-08-07T16:45:13.972Z,101742.69
2022-08-07T16:47:56.613Z,101747.06
2022-08-07T16:51:13.494Z,101751.63
2022-08-07T16:54:08.794Z,101750.47
2022-08-07T16:56:53.598Z,101748.81
2022-08-07T16:59:46.270Z,101752.16
2022-08-07T17:02:52.366Z,101746.72
2022-08-07T17:06:19.876Z,101745.28
2022-08-07T17:09:08.808Z,101748.16
2022-08-07T17:12:01.450Z,101744.56
2022-08-07T17:14:44.681Z,101746.31
2022-08-07T17:17:46.751Z,101745.47
2022-08-07T17:20:20.953Z,101752.25
2022-08-07T17:23:00.937Z,101750.81
2022-08-07T17:25:47.458Z,101758.72
2022-08-07T17:28:31.249Z,101754.56
2022-08-07T17:31:16.418Z,101759.25
2022-08-07T17:34:18.081Z,101764.13
2022-08-07T17:36:57.485Z,101761.41
2022-08-07T17:39:53.080Z,101752.25
2022-08-07T17:42:58.200Z,101765.28
2022-08-07T17:45:32.104Z,101750.22
2022-08-07T17:48:10.333Z,101761.25
2022-08-07T17:51:00.101Z,101760.53
2022-08-07T17:54:01.419Z,101756.22
2022-08-07T17:56:29.967Z,101758.63
2022-08-07T17:59:10.183Z,101756.31
2022-08-07T18:01:51.487Z,101758.31
2022-08-07T18:04:35.850Z,101759.16
2022-08-07T18:07:20.924Z,101756.47
2022-08-07T18:10:07.120Z,101757.72
2022-08-07T18:13:09.807Z,101757.34
2022-08-07T18:15:53.501Z,101757.38
2022-08-07T18:18:46.613Z,101751.16
2022-08-07T18:21:40.156Z,101751.16
2022-08-07T18:24:12.112Z,101748.81
2022-08-07T18:27:18.028Z,101756.28
2022-08-07T18:30:04.672Z,101761.41
2022-08-07T18:33:11.035Z,101761.81
2022-08-07T18:35:58.085Z,101762.63
2022-08-07T18:38:58.723Z,101755.19
2022-08-07T18:41:44.946Z,101765.38
2022-08-07T18:44:32.724Z,101763.78
2022-08-07T18:47:24.988Z,101769.66
2022-08-07T18:50:39.110Z,101768.06
2022-08-07T18:53:39.177Z,101772.75
2022-08-07T18:56:15.058Z,101780.19
2022-08-07T18:58:58.096Z,101778.63
2022-08-07T19:02:32.623Z,101779.78
2022-08-07T19:04:54.747Z,101783.66
2022-08-07T19:07:34.403Z,101782.06
2022-08-07T19:10:14.845Z,101779.28
2022-08-07T19:12:59.180Z,101774.19
2022-08-07T19:16:04.353Z,101781.22
2022-08-07T19:18:34.956Z,101786.66
2022-08-07T19:21:43.823Z,101790.91
2022-08-07T19:24:10.525Z,101787.38
2022-08-07T19:27:08.857Z,101785.03
2022-08-07T19:31:06.121Z,101790.41
2022-08-07T19:32:43.789Z,101793.06
2022-08-07T19:35:18.240Z,101795.44
2022-08-07T19:37:55.202Z,101798.91
2022-08-07T19:40:31.267Z,101793.00
2022-08-07T19:43:10.588Z,101801.19
2022-08-07T19:46:07.559Z,101798.06
2022-08-07T19:48:42.959Z,101795.31
2022-08-07T19:51:19.377Z,101801.13
2022-08-07T19:54:35.000Z,101800.41
2022-08-07T19:57:51.517Z,101799.56
2022-08-07T19:59:41.014Z,101792.53
2022-08-07T20:02:19.612Z,101806.25
2022-08-07T20:04:52.761Z,101808.94
2022-08-07T20:07:45.804Z,101819.00
2022-08-07T20:10:35.817Z,101813.53
2022-08-07T20:13:23.301Z,101818.63
2022-08-07T20:15:53.988Z,101822.09
2022-08-07T20:18:31.960Z,101819.97
2022-08-07T20:21:03.049Z,101822.22
2022-08-07T20:23:42.180Z,101825.31
2022-08-07T20:26:29.679Z,101828.13
2022-08-07T20:29:16.955Z,101826.47
2022-08-07T20:32:01.195Z,101819.00
2022-08-07T20:34:49.674Z,101828.34
2022-08-07T20:37:24.262Z,101831.75
2022-08-07T20:40:02.774Z,101837.59
2022-08-07T20:42:47.345Z,101837.13
2022-08-07T20:45:33.640Z,101839.41
2022-08-07T20:48:28.485Z,101833.53
2022-08-07T20:51:09.834Z,101827.09
2022-08-07T20:54:03.637Z,101835.13
2022-08-07T20:56:46.133Z,101830.81
2022-08-07T21:00:04.162Z,101838.22
2022-08-07T21:02:54.538Z,101841.59
2022-08-07T21:05:50.584Z,101840.72
2022-08-07T21:08:38.131Z,101829.75
2022-08-07T21:11:15.025Z,101831.47
2022-08-07T21:14:29.375Z,101834.97
2022-08-07T21:17:06.638Z,101826.69
2022-08-07T21:19:51.601Z,101832.97
2022-08-07T21:22:38.504Z,101844.25
2022-08-07T21:25:14.510Z,101836.63
2022-08-07T21:28:01.756Z,101839.75
2022-08-07T21:30:38.692Z,101836.88
2022-08-07T21:33:17.671Z,101840.59
2022-08-07T21:36:05.809Z,101836.66
2022-08-07T21:38:54.447Z,101837.53
2022-08-07T21:41:37.680Z,101836.69
2022-08-07T21:44:28.645Z,101827.28
2022-08-07T21:47:05.386Z,101837.91
2022-08-07T21:50:00.868Z,101839.66
2022-08-07T21:52:44.769Z,101837.31
2022-08-07T21:55:27.996Z,101839.94
2022-08-07T21:58:06.709Z,101832.06
2022-08-07T22:00:35.020Z,101841.84
2022-08-07T22:03:16.491Z,101836.59
2022-08-07T22:05:53.726Z,101841.59
2022-08-07T22:08:24.740Z,101839.16
2022-08-07T22:10:59.023Z,101841.75
2022-08-07T22:13:50.462Z,101841.41
2022-08-07T22:16:41.851Z,101838.00
2022-08-07T22:19:23.873Z,101839.88
2022-08-07T22:22:17.733Z,101838.25
2022-08-07T22:24:57.817Z,101833.19
2022-08-07T22:28:29.704Z,101841.44
2022-08-07T22:30:27.154Z,101843.38
2022-08-07T22:33:03.668Z,101844.03
2022-08-07T22:35:41.311Z,101846.03
2022-08-07T22:38:20.591Z,101847.91
2022-08-07T22:40:58.179Z,101848.09
2022-08-07T22:43:34.361Z,101842.38
2022-08-07T22:47:03.069Z,101835.22
2022-08-07T22:49:37.677Z,101848.47
2022-08-07T22:52:37.684Z,101849.97
2022-08-07T22:55:39.240Z,101840.25
2022-08-07T22:58:34.156Z,101835.03
2022-08-07T23:01:18.962Z,101841.97
2022-08-07T23:04:04.266Z,101841.97
2022-08-07T23:06:52.067Z,101835.22
2022-08-07T23:10:04.786Z,101844.38
2022-08-07T23:12:45.014Z,101849.31
2022-08-07T23:16:06.158Z,101846.16
2022-08-07T23:18:27.411Z,101855.56
2022-08-07T23:21:09.436Z,101853.66
2022-08-07T23:24:05.856Z,101854.19
2022-08-07T23:26:57.852Z,101863.34
2022-08-07T23:30:38.709Z,101859.13
2022-08-07T23:34:36.244Z,101862.44
2022-08-07T23:36:22.982Z,101856.31
2022-08-07T23:39:04.828Z,101859.81
2022-08-07T23:42:04.337Z,101857.72
2022-08-07T23:45:02.632Z,101854.13
2022-08-07T23:47:47.867Z,101856.56
2022-08-07T23:50:34.390Z,101859.72
2022-08-07T23:53:17.094Z,101856.09
2022-08-07T23:55:55.758Z,101850.63
2022-08-07T23:58:30.677Z,101854.47
